createdAt,value
2018-11-04T00:01:43.271Z,0.90
2018-11-04T00:04:18.393Z,0.90
2018-11-04T00:06:46.877Z,0.90
2018-11-04T00:09:16.271Z,0.80
2018-11-04T00:11:45.907Z,0.90
2018-11-04T00:14:14.651Z,0.90
2018-11-04T00:16:43.795Z,0.90
2018-11-04T00:19:12.664Z,1.00
2018-11-04T00:21:41.232Z,0.90
2018-11-04T00:24:10.301Z,0.90
2018-11-04T00:26:38.668Z,0.80
2018-11-04T00:29:07.203Z,0.80
2018-11-04T00:31:35.683Z,0.90
2018-11-04T00:34:04.507Z,1.00
2018-11-04T00:36:32.999Z,1.00
2018-11-04T00:39:01.504Z,0.80
2018-11-04T00:41:30.010Z,0.80
2018-11-04T00:43:58.508Z,0.80
2018-11-04T00:46:26.987Z,0.80
2018-11-04T00:48:55.489Z,0.80
2018-11-04T00:51:24.383Z,0.70
2018-11-04T00:53:52.885Z,0.70
2018-11-04T00:56:21.367Z,0.80
2018-11-04T00:58:49.797Z,0.80
2018-11-04T01:01:18.274Z,0.70
2018-11-04T01:03:46.780Z,0.60
2018-11-04T01:06:15.206Z,0.60
2018-11-04T01:08:44.743Z,0.70
2018-11-04T01:11:13.213Z,0.60
2018-11-04T01:13:41.700Z,0.60
2018-11-04T01:16:10.113Z,0.70
2018-11-04T01:18:38.801Z,0.70
2018-11-04T01:21:07.306Z,0.80
2018-11-04T01:23:35.769Z,0.70
2018-11-04T01:26:04.338Z,0.60
2018-11-04T01:28:32.805Z,0.50
2018-11-04T01:31:01.245Z,0.50
2018-11-04T01:33:29.719Z,0.40
2018-11-04T01:35:58.190Z,0.40
2018-11-04T01:38:26.681Z,0.40
2018-11-04T01:40:55.127Z,0.50
2018-11-04T01:43:23.566Z,0.60
2018-11-04T01:45:52.006Z,0.60
2018-11-04T01:48:20.454Z,0.60
2018-11-04T01:50:48.941Z,0.60
2018-11-04T01:53:17.453Z,0.50
2018-11-04T01:55:45.927Z,0.50
2018-11-04T01:58:14.381Z,0.50
2018-11-04T02:00:42.897Z,0.50
2018-11-04T02:03:11.346Z,0.60
2018-11-04T02:05:39.810Z,0.60
2018-11-04T02:08:08.289Z,0.70
2018-11-04T02:10:36.769Z,0.70
2018-11-04T02:13:05.710Z,0.70
2018-11-04T02:15:34.190Z,0.70
2018-11-04T02:18:02.668Z,0.80
2018-11-04T02:20:31.102Z,1.00
2018-11-04T02:22:59.599Z,1.00
2018-11-04T02:25:28.890Z,1.00
2018-11-04T02:27:57.361Z,1.00
2018-11-04T02:30:25.867Z,1.00
2018-11-04T02:32:54.341Z,1.00
2018-11-04T02:35:22.826Z,1.20
2018-11-04T02:37:51.291Z,1.50
2018-11-04T02:40:19.725Z,0.90
2018-11-04T02:42:48.198Z,0.90
2018-11-04T02:45:16.653Z,0.80
2018-11-04T02:47:45.115Z,0.80
2018-11-04T02:50:13.607Z,0.70
2018-11-04T02:52:42.066Z,0.80
2018-11-04T02:55:11.192Z,0.70
2018-11-04T02:57:39.689Z,0.80
2018-11-04T03:00:11.637Z,0.80
2018-11-04T03:02:40.458Z,0.90
2018-11-04T03:05:09.612Z,0.80
2018-11-04T03:07:38.384Z,0.80
2018-11-04T03:10:07.762Z,0.80
2018-11-04T03:12:36.277Z,0.80
2018-11-04T03:15:04.773Z,0.90
2018-11-04T03:17:33.273Z,0.80
2018-11-04T03:20:01.721Z,0.90
2018-11-04T03:22:30.289Z,1.00
2018-11-04T03:24:58.721Z,0.90
2018-11-04T03:27:27.222Z,0.90
2018-11-04T03:29:55.661Z,0.80
2018-11-04T03:32:24.123Z,0.70
2018-11-04T03:34:52.613Z,0.80
2018-11-04T03:37:21.094Z,0.70
2018-11-04T03:39:49.543Z,0.70
2018-11-04T03:42:17.985Z,0.70
2018-11-04T03:44:46.449Z,0.60
2018-11-04T03:47:14.938Z,0.60
2018-11-04T03:49:43.461Z,0.60
2018-11-04T03:52:11.924Z,0.50
2018-11-04T03:54:40.372Z,0.50
2018-11-04T03:57:08.816Z,0.60
2018-11-04T03:59:37.298Z,0.60
2018-11-04T04:02:06.218Z,0.60
2018-11-04T04:04:34.688Z,0.50
2018-11-04T04:07:03.164Z,0.60
2018-11-04T04:09:31.817Z,0.60
2018-11-04T04:12:00.257Z,0.60
2018-11-04T04:14:28.711Z,0.50
2018-11-04T04:16:57.179Z,0.60
2018-11-04T04:19:25.625Z,0.70
2018-11-04T04:21:54.136Z,0.80
2018-11-04T04:24:22.618Z,0.90
2018-11-04T04:26:51.114Z,1.00
2018-11-04T04:29:19.670Z,1.00
2018-11-04T04:34:24.786Z,1.10
2018-11-04T04:36:53.257Z,1.10
2018-11-04T04:39:21.717Z,1.10
2018-11-04T04:41:50.302Z,1.10
2018-11-04T04:44:18.857Z,1.10
2018-11-04T04:46:47.351Z,1.10
2018-11-04T04:49:15.974Z,1.10
2018-11-04T04:51:44.460Z,1.00
2018-11-04T04:54:12.974Z,0.90
2018-11-04T04:56:41.506Z,0.90
2018-11-04T04:59:10.206Z,0.90
2018-11-04T05:01:38.693Z,0.70
2018-11-04T05:04:07.292Z,0.80
2018-11-04T05:06:35.841Z,0.70
2018-11-04T05:09:05.991Z,0.60
2018-11-04T05:11:34.574Z,0.50
2018-11-04T05:14:03.081Z,0.50
2018-11-04T05:16:31.689Z,0.30
2018-11-04T05:19:00.181Z,0.20
2018-11-04T05:21:28.658Z,0.20
2018-11-04T05:23:57.184Z,0.20
2018-11-04T05:26:25.673Z,0.10
2018-11-04T05:28:54.233Z,0.00
2018-11-04T05:31:22.674Z,0.00
2018-11-04T05:33:51.122Z,0.00
2018-11-04T05:36:19.585Z,0.00
2018-11-04T05:38:48.028Z,0.00
2018-11-04T05:41:16.649Z,-0.10
2018-11-04T05:43:45.084Z,-0.10
2018-11-04T05:46:13.619Z,-0.10
2018-11-04T05:48:42.122Z,-0.10
2018-11-04T05:51:10.731Z,-0.10
2018-11-04T05:53:40.449Z,0.00
2018-11-04T05:56:10.448Z,0.00
2018-11-04T05:58:38.958Z,0.00
2018-11-04T06:01:07.841Z,0.00
2018-11-04T06:03:36.301Z,-0.20
2018-11-04T06:06:05.273Z,-0.20
2018-11-04T06:08:33.775Z,-0.30
2018-11-04T06:11:02.371Z,-0.20
2018-11-04T06:13:30.803Z,-0.10
2018-11-04T06:15:59.518Z,-0.10
2018-11-04T06:18:28.052Z,0.20
2018-11-04T06:20:56.614Z,0.30
2018-11-04T06:23:25.257Z,0.30
2018-11-04T06:25:53.694Z,0.20
2018-11-04T06:28:22.320Z,0.10
2018-11-04T06:30:50.903Z,0.20
2018-11-04T06:33:19.361Z,0.20
2018-11-04T06:35:48.026Z,0.20
2018-11-04T06:38:16.760Z,0.10
2018-11-04T06:40:46.312Z,0.10
2018-11-04T06:43:14.822Z,0.20
2018-11-04T06:45:43.331Z,0.30
2018-11-04T06:48:11.809Z,0.40
2018-11-04T06:50:40.311Z,0.50
2018-11-04T06:53:08.737Z,0.70
2018-11-04T06:55:37.217Z,0.80
2018-11-04T06:58:06.158Z,1.00
2018-11-04T07:00:34.633Z,1.10
2018-11-04T07:03:03.097Z,1.20
2018-11-04T07:05:31.537Z,1.40
2018-11-04T07:08:00.018Z,1.50
2018-11-04T07:10:28.606Z,1.50
2018-11-04T07:12:57.100Z,1.70
2018-11-04T07:15:25.515Z,1.80
2018-11-04T07:17:54.275Z,1.90
2018-11-04T07:20:23.025Z,1.90
2018-11-04T07:22:52.186Z,2.00
2018-11-04T07:25:20.638Z,2.10
2018-11-04T07:27:49.073Z,2.20
2018-11-04T07:30:17.516Z,2.20
2018-11-04T07:32:45.973Z,2.30
2018-11-04T07:35:14.408Z,2.40
2018-11-04T07:37:42.857Z,2.40
2018-11-04T07:40:11.333Z,2.40
2018-11-04T07:42:39.874Z,2.40
2018-11-04T07:45:09.185Z,2.50
2018-11-04T07:47:37.673Z,2.40
2018-11-04T07:50:09.217Z,2.40
2018-11-04T07:52:37.678Z,2.40
2018-11-04T07:55:08.101Z,2.50
2018-11-04T07:57:38.042Z,2.60
2018-11-04T08:00:08.841Z,2.80
2018-11-04T08:02:37.321Z,3.00
2018-11-04T08:05:06.222Z,3.20
2018-11-04T08:07:34.734Z,3.40
2018-11-04T08:10:03.215Z,3.50
2018-11-04T08:12:31.714Z,3.60
2018-11-04T08:15:00.198Z,3.70
2018-11-04T08:17:28.626Z,3.80
2018-11-04T08:19:57.076Z,4.00
2018-11-04T08:22:25.513Z,4.20
2018-11-04T08:24:53.952Z,4.40
2018-11-04T08:27:22.385Z,4.50
2018-11-04T08:29:50.868Z,4.70
2018-11-04T08:32:19.299Z,4.80
2018-11-04T08:34:47.734Z,5.10
2018-11-04T08:37:16.180Z,5.20
2018-11-04T08:39:44.680Z,5.50
2018-11-04T08:42:13.276Z,5.60
2018-11-04T08:44:41.772Z,5.80
2018-11-04T08:47:10.279Z,5.80
2018-11-04T08:49:38.704Z,5.90
2018-11-04T08:52:07.141Z,5.80
2018-11-04T08:54:35.615Z,5.90
2018-11-04T08:57:04.053Z,6.00
2018-11-04T08:59:32.536Z,6.20
2018-11-04T09:02:00.976Z,6.30
2018-11-04T09:04:29.406Z,6.50
2018-11-04T09:06:58.097Z,6.70
2018-11-04T09:09:26.581Z,6.90
2018-11-04T09:11:55.061Z,7.20
2018-11-04T09:14:23.718Z,7.40
2018-11-04T09:16:52.128Z,7.40
2018-11-04T09:19:20.615Z,7.50
2018-11-04T09:21:49.363Z,7.40
2018-11-04T09:24:17.699Z,7.60
2018-11-04T09:26:46.169Z,7.80
2018-11-04T09:29:14.834Z,7.80
2018-11-04T09:31:43.323Z,7.90
2018-11-04T09:34:11.917Z,8.10
2018-11-04T09:36:40.551Z,8.20
2018-11-04T09:39:10.648Z,8.50
2018-11-04T09:41:39.747Z,8.50
2018-11-04T09:44:08.572Z,8.60
2018-11-04T09:46:37.116Z,8.70
2018-11-04T09:49:05.627Z,9.00
2018-11-04T09:51:34.093Z,9.10
2018-11-04T09:54:02.669Z,9.30
2018-11-04T09:56:31.215Z,9.60
2018-11-04T09:58:59.635Z,9.50
2018-11-04T10:01:28.080Z,9.60
2018-11-04T10:03:56.813Z,9.70
2018-11-04T10:06:25.296Z,9.60
2018-11-04T10:08:53.729Z,9.60
2018-11-04T10:11:22.833Z,9.90
2018-11-04T10:13:51.255Z,9.90
2018-11-04T10:16:20.557Z,9.90
2018-11-04T10:18:49.041Z,9.90
2018-11-04T10:21:17.405Z,9.80
2018-11-04T10:23:45.858Z,9.90
2018-11-04T10:26:14.310Z,9.90
2018-11-04T10:28:42.739Z,9.90
2018-11-04T10:31:11.186Z,9.90
2018-11-04T10:33:39.627Z,10.00
2018-11-04T10:36:08.071Z,10.00
2018-11-04T10:38:36.525Z,10.00
2018-11-04T10:41:05.134Z,10.10
2018-11-04T10:43:33.562Z,10.30
2018-11-04T10:46:02.025Z,10.50
2018-11-04T10:48:30.482Z,10.70
2018-11-04T10:50:58.942Z,10.90
2018-11-04T10:53:27.885Z,11.10
2018-11-04T10:55:56.450Z,11.40
2018-11-04T10:58:24.854Z,11.40
2018-11-04T11:00:58.678Z,11.50
2018-11-04T11:03:27.123Z,11.70
2018-11-04T11:05:55.557Z,11.90
2018-11-04T11:08:24.022Z,11.90
2018-11-04T11:10:52.534Z,12.00
2018-11-04T11:13:20.980Z,12.00
2018-11-04T11:15:49.470Z,12.20
2018-11-04T11:18:17.926Z,12.20
2018-11-04T11:20:46.413Z,12.30
2018-11-04T11:23:14.977Z,12.40
2018-11-04T11:25:43.337Z,12.50
2018-11-04T11:28:11.793Z,12.40
2018-11-04T11:30:40.468Z,12.50
2018-11-04T11:33:09.535Z,12.70
2018-11-04T11:35:38.016Z,12.80
2018-11-04T11:38:06.799Z,13.00
2018-11-04T11:40:35.169Z,13.00
2018-11-04T11:43:03.668Z,13.10
2018-11-04T11:45:32.147Z,13.20
2018-11-04T11:48:00.864Z,13.40
2018-11-04T11:50:29.285Z,13.60
2018-11-04T11:52:57.777Z,13.90
2018-11-04T11:55:26.254Z,13.80
2018-11-04T11:57:54.691Z,14.00
2018-11-04T12:00:23.346Z,14.10
2018-11-04T12:02:51.805Z,14.30
2018-11-04T12:05:20.321Z,14.30
2018-11-04T12:07:48.760Z,14.50
2018-11-04T12:10:17.196Z,14.60
2018-11-04T12:12:45.674Z,14.50
2018-11-04T12:15:14.768Z,14.30
2018-11-04T12:17:43.412Z,14.50
2018-11-04T12:20:12.838Z,14.40
2018-11-04T12:22:41.383Z,14.60
2018-11-04T12:25:11.082Z,14.60
2018-11-04T12:27:39.563Z,14.80
2018-11-04T12:30:10.530Z,14.60
2018-11-04T12:32:39.198Z,14.90
2018-11-04T12:35:08.862Z,15.00
2018-11-04T12:37:37.264Z,15.00
2018-11-04T12:40:07.760Z,15.10
2018-11-04T12:42:36.238Z,15.20
2018-11-04T12:45:05.535Z,15.10
2018-11-04T12:47:33.973Z,15.30
2018-11-04T12:50:02.421Z,15.20
2018-11-04T12:52:31.373Z,15.10
2018-11-04T12:54:59.835Z,15.10
2018-11-04T12:57:28.251Z,15.40
2018-11-04T12:59:56.702Z,15.50
2018-11-04T13:02:25.179Z,15.30
2018-11-04T13:04:53.609Z,15.40
2018-11-04T13:07:22.059Z,15.50
2018-11-04T13:09:50.500Z,15.60
2018-11-04T13:12:18.951Z,15.30
2018-11-04T13:14:47.411Z,15.20
2018-11-04T13:17:15.862Z,15.60
2018-11-04T13:19:44.363Z,15.60
2018-11-04T13:22:12.792Z,15.50
2018-11-04T13:24:41.234Z,15.70
2018-11-04T13:27:10.400Z,15.60
2018-11-04T13:29:38.866Z,15.70
2018-11-04T13:32:07.310Z,16.00
2018-11-04T13:34:35.731Z,16.00
2018-11-04T13:37:04.203Z,15.20
2018-11-04T13:39:32.650Z,15.10
2018-11-04T13:42:07.819Z,15.40
2018-11-04T13:44:36.262Z,15.40
2018-11-04T13:47:04.752Z,15.80
2018-11-04T13:49:33.254Z,15.80
2018-11-04T13:52:01.720Z,15.10
2018-11-04T13:54:30.190Z,14.60
2018-11-04T13:56:58.658Z,14.10
2018-11-04T13:59:27.098Z,14.20
2018-11-04T14:01:55.746Z,14.40
2018-11-04T14:04:24.421Z,14.90
2018-11-04T14:06:52.985Z,15.00
2018-11-04T14:09:21.466Z,15.50
2018-11-04T14:11:49.905Z,15.50
2018-11-04T14:14:18.378Z,15.50
2018-11-04T14:16:46.833Z,15.10
2018-11-04T14:19:15.308Z,15.20
2018-11-04T14:21:43.755Z,15.10
2018-11-04T14:24:12.967Z,15.00
2018-11-04T14:26:42.289Z,15.00
2018-11-04T14:29:10.769Z,15.20
2018-11-04T14:31:39.223Z,15.20
2018-11-04T14:34:07.742Z,15.10
2018-11-04T14:36:36.196Z,14.90
2018-11-04T14:39:06.839Z,15.20
2018-11-04T14:41:35.318Z,14.80
2018-11-04T14:44:03.807Z,14.70
2018-11-04T14:46:32.288Z,14.50
2018-11-04T14:49:00.784Z,14.50
2018-11-04T14:51:29.323Z,14.20
2018-11-04T14:53:57.825Z,14.30
2018-11-04T14:56:29.154Z,14.10
2018-11-04T14:58:58.328Z,14.20
2018-11-04T15:01:27.017Z,14.10
2018-11-04T15:03:55.442Z,14.10
2018-11-04T15:06:24.642Z,13.80
2018-11-04T15:08:53.232Z,13.80
2018-11-04T15:11:21.880Z,13.50
2018-11-04T15:13:51.218Z,13.30
2018-11-04T15:16:19.735Z,13.00
2018-11-04T15:18:48.357Z,12.70
2018-11-04T15:21:16.743Z,12.50
2018-11-04T15:23:45.209Z,12.00
2018-11-04T15:26:13.655Z,11.60
2018-11-04T15:28:42.130Z,11.50
2018-11-04T15:31:10.553Z,11.40
2018-11-04T15:33:38.997Z,11.20
2018-11-04T15:36:07.789Z,11.10
2018-11-04T15:38:36.246Z,11.00
2018-11-04T15:41:04.780Z,10.90
2018-11-04T15:43:33.230Z,10.80
2018-11-04T15:46:01.719Z,10.70
2018-11-04T15:48:30.213Z,10.70
2018-11-04T15:50:58.714Z,10.50
2018-11-04T15:53:27.167Z,10.50
2018-11-04T15:55:55.617Z,10.40
2018-11-04T15:58:24.055Z,10.40
2018-11-04T16:00:52.525Z,10.20
2018-11-04T16:03:20.981Z,10.20
2018-11-04T16:05:50.067Z,10.10
2018-11-04T16:08:18.569Z,10.00
2018-11-04T16:10:47.009Z,10.00
2018-11-04T16:13:15.602Z,9.80
2018-11-04T16:15:44.065Z,9.80
2018-11-04T16:18:12.682Z,9.80
2018-11-04T16:20:41.081Z,9.70
2018-11-04T16:23:09.517Z,9.70
2018-11-04T16:25:38.062Z,9.60
2018-11-04T16:28:07.104Z,9.50
2018-11-04T16:30:35.594Z,9.50
2018-11-04T16:33:04.206Z,9.40
2018-11-04T16:35:32.712Z,9.30
2018-11-04T16:38:01.265Z,9.20
2018-11-04T16:40:29.721Z,9.20
2018-11-04T16:42:58.234Z,9.20
2018-11-04T16:45:28.936Z,9.20
2018-11-04T16:47:57.548Z,9.10
2018-11-04T16:50:28.281Z,9.10
2018-11-04T16:52:56.851Z,9.10
2018-11-04T16:55:25.401Z,9.10
2018-11-04T16:57:56.792Z,9.00
2018-11-04T17:00:27.455Z,9.00
2018-11-04T17:02:55.945Z,9.00
2018-11-04T17:05:25.777Z,8.90
2018-11-04T17:07:54.925Z,8.80
2018-11-04T17:10:23.457Z,8.70
2018-11-04T17:12:52.450Z,8.60
2018-11-04T17:15:20.909Z,8.60
2018-11-04T17:17:49.982Z,8.70
2018-11-04T17:20:18.847Z,8.70
2018-11-04T17:22:47.526Z,8.70
2018-11-04T17:25:16.092Z,8.70
2018-11-04T17:27:44.680Z,8.70
2018-11-04T17:30:15.579Z,8.70
2018-11-04T17:32:44.489Z,8.60
2018-11-04T17:35:14.171Z,8.60
2018-11-04T17:37:43.170Z,8.50
2018-11-04T17:40:12.624Z,8.50
2018-11-04T17:42:41.061Z,8.40
2018-11-04T17:45:12.079Z,8.40
2018-11-04T17:47:40.561Z,8.30
2018-11-04T17:50:11.931Z,8.30
2018-11-04T17:52:40.389Z,8.20
2018-11-04T17:55:09.114Z,8.20
2018-11-04T17:57:37.559Z,8.20
2018-11-04T18:00:08.175Z,8.20
2018-11-04T18:02:36.654Z,8.10
2018-11-04T18:05:05.676Z,8.10
2018-11-04T18:07:34.034Z,8.10
2018-11-04T18:10:02.477Z,8.10
2018-11-04T18:12:30.899Z,8.10
2018-11-04T18:15:00.088Z,8.10
2018-11-04T18:17:28.545Z,8.00
2018-11-04T18:19:57.020Z,8.00
2018-11-04T18:22:25.517Z,7.90
2018-11-04T18:24:54.001Z,8.00
2018-11-04T18:27:22.482Z,7.90
2018-11-04T18:29:50.946Z,7.90
2018-11-04T18:32:19.653Z,7.80
2018-11-04T18:34:48.061Z,7.80
2018-11-04T18:37:16.505Z,7.90
2018-11-04T18:39:45.301Z,7.90
2018-11-04T18:42:13.871Z,7.80
2018-11-04T18:44:44.475Z,7.80
2018-11-04T18:47:13.392Z,7.80
2018-11-04T18:49:41.866Z,7.80
2018-11-04T18:52:10.495Z,7.80
2018-11-04T18:54:39.239Z,7.80
2018-11-04T18:57:07.677Z,7.80
2018-11-04T18:59:36.121Z,7.80
2018-11-04T19:02:04.897Z,7.90
2018-11-04T19:04:51.194Z,7.90
2018-11-04T19:07:19.671Z,7.90
2018-11-04T19:09:48.241Z,7.90
2018-11-04T19:12:17.252Z,7.90
2018-11-04T19:14:45.694Z,7.90
2018-11-04T19:17:15.689Z,7.90
2018-11-04T19:19:44.130Z,7.90
2018-11-04T19:22:12.574Z,7.80
2018-11-04T19:24:41.433Z,7.80
2018-11-04T19:27:09.861Z,7.80
2018-11-04T19:29:38.757Z,7.70
2018-11-04T19:32:07.421Z,7.60
2018-11-04T19:34:36.260Z,7.70
2018-11-04T19:37:04.856Z,7.60
2018-11-04T19:39:33.461Z,7.60
2018-11-04T19:42:01.982Z,7.50
2018-11-04T19:44:30.408Z,7.30
2018-11-04T19:46:58.878Z,7.30
2018-11-04T19:49:27.293Z,7.30
2018-11-04T19:51:55.749Z,7.40
2018-11-04T19:54:24.212Z,7.30
2018-11-04T19:56:53.270Z,7.20
2018-11-04T19:59:22.113Z,7.20
2018-11-04T20:01:50.566Z,7.20
2018-11-04T20:04:19.022Z,7.20
2018-11-04T20:06:47.448Z,7.20
2018-11-04T20:09:17.314Z,7.20
2018-11-04T20:11:46.390Z,7.30
2018-11-04T20:14:15.149Z,7.30
2018-11-04T20:16:44.178Z,7.20
2018-11-04T20:19:18.442Z,7.20
2018-11-04T20:21:46.917Z,7.20
2018-11-04T20:24:20.642Z,7.20
2018-11-04T20:26:49.381Z,7.20
2018-11-04T20:29:19.072Z,7.20
2018-11-04T20:31:52.880Z,7.20
2018-11-04T20:34:22.253Z,7.10
2018-11-04T20:36:50.706Z,7.20
2018-11-04T20:39:24.507Z,7.00
2018-11-04T20:41:52.997Z,7.10
2018-11-04T20:44:21.461Z,7.10
2018-11-04T20:46:49.877Z,7.10
2018-11-04T20:49:23.590Z,7.10
2018-11-04T20:51:52.022Z,7.10
2018-11-04T20:54:20.525Z,7.10
2018-11-04T20:56:54.711Z,7.10
2018-11-04T20:59:23.152Z,7.10
2018-11-04T21:01:51.664Z,7.10
2018-11-04T21:04:20.053Z,7.00
2018-11-04T21:06:48.497Z,7.00
2018-11-04T21:09:16.905Z,7.00
2018-11-04T21:11:45.394Z,6.90
2018-11-04T21:14:13.830Z,6.90
2018-11-04T21:16:42.473Z,6.80
2018-11-04T21:19:10.734Z,6.80
2018-11-04T21:21:39.238Z,6.70
2018-11-04T21:24:07.710Z,6.70
2018-11-04T21:26:36.174Z,6.70
2018-11-04T21:29:05.608Z,6.80
2018-11-04T21:31:33.933Z,6.80
2018-11-04T21:34:02.350Z,6.90
2018-11-04T21:36:31.067Z,7.10
2018-11-04T21:38:59.458Z,7.10
2018-11-04T21:41:27.917Z,7.20
2018-11-04T21:43:56.666Z,7.20
2018-11-04T21:46:25.140Z,7.30
2018-11-04T21:48:53.841Z,7.40
2018-11-04T21:51:22.282Z,7.30
2018-11-04T21:53:50.725Z,7.20
2018-11-04T21:56:19.231Z,7.30
2018-11-04T21:58:47.630Z,7.30
2018-11-04T22:01:16.121Z,7.20
2018-11-04T22:03:44.691Z,7.20
2018-11-04T22:06:12.997Z,7.20
2018-11-04T22:08:41.463Z,7.10
2018-11-04T22:11:09.891Z,7.10
2018-11-04T22:13:38.331Z,7.10
2018-11-04T22:16:06.825Z,7.00
2018-11-04T22:18:35.262Z,7.10
2018-11-04T22:21:03.799Z,7.10
2018-11-04T22:23:32.326Z,7.10
2018-11-04T22:26:00.766Z,7.00
2018-11-04T22:28:29.185Z,7.00
2018-11-04T22:30:57.650Z,6.90
2018-11-04T22:33:26.092Z,6.80
2018-11-04T22:35:54.543Z,6.70
2018-11-04T22:38:22.965Z,6.60
2018-11-04T22:40:51.388Z,6.60
2018-11-04T22:43:19.883Z,6.50
2018-11-04T22:45:48.420Z,6.50
2018-11-04T22:48:16.998Z,6.50
2018-11-04T22:50:45.534Z,6.50
2018-11-04T22:53:14.055Z,6.50
2018-11-04T22:55:42.610Z,6.50
2018-11-04T22:58:11.079Z,6.60
2018-11-04T23:00:44.761Z,6.50
2018-11-04T23:03:13.534Z,6.50
2018-11-04T23:05:42.006Z,6.60
2018-11-04T23:08:10.598Z,6.50
2018-11-04T23:10:39.006Z,6.60
2018-11-04T23:13:07.590Z,6.60
2018-11-04T23:15:36.054Z,6.60
2018-11-04T23:18:04.517Z,6.70
2018-11-04T23:20:32.967Z,6.90
2018-11-04T23:23:01.476Z,6.80
2018-11-04T23:25:30.770Z,6.90
2018-11-04T23:27:59.182Z,6.80
2018-11-04T23:30:27.710Z,6.80
2018-11-04T23:32:56.165Z,6.80
2018-11-04T23:35:24.645Z,6.60
2018-11-04T23:37:53.096Z,6.60
2018-11-04T23:40:21.552Z,6.60
2018-11-04T23:42:49.966Z,6.50
2018-11-04T23:45:18.781Z,6.40
2018-11-04T23:47:47.205Z,6.40
2018-11-04T23:50:16.893Z,6.30
2018-11-04T23:52:45.870Z,6.30
2018-11-04T23:55:15.078Z,6.20
2018-11-04T23:57:43.531Z,6.20
